createdAt,value
2022-10-18T00:00:07.684Z,10.96
2022-10-18T00:02:38.025Z,11.06
2022-10-18T00:05:05.434Z,10.92
2022-10-18T00:07:32.763Z,10.82
2022-10-18T00:09:59.902Z,10.79
2022-10-18T00:12:26.984Z,10.92
2022-10-18T00:14:53.864Z,10.82
2022-10-18T00:17:20.847Z,10.81
2022-10-18T00:19:49.293Z,10.89
2022-10-18T00:22:16.173Z,10.95
2022-10-18T00:24:43.079Z,11.03
2022-10-18T00:27:09.983Z,10.92
2022-10-18T00:29:36.930Z,10.90
2022-10-18T00:32:04.053Z,10.96
2022-10-18T00:34:31.034Z,10.89
2022-10-18T00:36:57.890Z,10.83
2022-10-18T00:39:25.055Z,10.85
2022-10-18T00:41:52.058Z,10.77
2022-10-18T00:44:18.880Z,10.70
2022-10-18T00:46:49.446Z,10.85
2022-10-18T00:49:27.590Z,10.87
2022-10-18T00:52:04.429Z,10.83
2022-10-18T00:54:34.797Z,10.79
2022-10-18T00:57:02.758Z,11.05
2022-10-18T00:59:30.136Z,11.03
2022-10-18T01:01:57.149Z,11.08
2022-10-18T01:04:24.282Z,11.10
2022-10-18T01:07:20.660Z,11.12
2022-10-18T01:10:10.376Z,10.95
2022-10-18T01:12:57.705Z,10.90
2022-10-18T01:15:29.393Z,11.13
2022-10-18T01:18:27.788Z,11.09
2022-10-18T01:21:03.552Z,10.97
2022-10-18T01:23:57.787Z,11.05
2022-10-18T01:26:46.168Z,11.09
2022-10-18T01:29:28.096Z,10.98
2022-10-18T01:32:02.517Z,11.10
2022-10-18T01:34:34.092Z,11.02
2022-10-18T01:37:05.168Z,11.16
2022-10-18T01:39:36.651Z,11.10
2022-10-18T01:42:09.076Z,11.03
2022-10-18T01:44:39.281Z,11.17
2022-10-18T01:47:09.558Z,11.30
2022-10-18T01:49:36.427Z,11.33
2022-10-18T01:52:03.421Z,11.24
2022-10-18T01:54:35.163Z,11.29
2022-10-18T01:57:24.225Z,11.51
2022-10-18T02:00:05.459Z,11.71
2022-10-18T02:03:13.908Z,11.77
2022-10-18T02:06:06.624Z,11.82
2022-10-18T02:08:59.815Z,11.89
2022-10-18T02:11:29.558Z,11.40
2022-10-18T02:14:26.010Z,11.21
2022-10-18T02:16:57.075Z,11.22
2022-10-18T02:19:27.042Z,11.30
2022-10-18T02:21:55.901Z,11.54
2022-10-18T02:24:26.063Z,11.69
2022-10-18T02:26:53.116Z,11.93
2022-10-18T02:29:20.263Z,11.46
2022-10-18T02:31:50.203Z,11.18
2022-10-18T02:34:21.886Z,10.60
2022-10-18T02:36:54.169Z,10.49
2022-10-18T02:39:30.332Z,10.54
2022-10-18T02:41:58.561Z,10.59
2022-10-18T02:44:25.704Z,10.71
2022-10-18T02:46:53.511Z,11.09
2022-10-18T02:49:20.413Z,10.84
2022-10-18T02:51:47.294Z,10.79
2022-10-18T02:54:14.157Z,10.99
2022-10-18T02:56:41.118Z,10.96
2022-10-18T02:59:08.346Z,11.10
2022-10-18T03:01:36.387Z,11.32
2022-10-18T03:04:04.913Z,11.35
2022-10-18T03:06:32.830Z,11.23
2022-10-18T03:08:59.832Z,10.96
2022-10-18T03:11:26.693Z,10.69
2022-10-18T03:13:53.583Z,10.49
2022-10-18T03:16:20.649Z,10.64
2022-10-18T03:18:47.550Z,10.67
2022-10-18T03:21:14.438Z,11.07
2022-10-18T03:23:42.421Z,11.17
2022-10-18T03:26:09.825Z,11.45
2022-10-18T03:28:36.897Z,11.16
2022-10-18T03:31:05.290Z,11.22
2022-10-18T03:33:33.230Z,11.34
2022-10-18T03:36:00.130Z,11.26
2022-10-18T03:38:27.030Z,11.52
2022-10-18T03:40:53.984Z,11.14
2022-10-18T03:43:20.885Z,11.26
2022-10-18T03:45:47.765Z,11.29
2022-10-18T03:48:14.906Z,11.28
2022-10-18T03:50:43.004Z,11.28
2022-10-18T03:53:10.572Z,11.17
2022-10-18T03:55:37.872Z,10.84
2022-10-18T03:58:05.413Z,10.72
2022-10-18T04:00:32.396Z,10.35
2022-10-18T04:02:59.323Z,10.46
2022-10-18T04:05:28.297Z,10.52
2022-10-18T04:07:55.401Z,10.28
2022-10-18T04:10:22.547Z,10.34
2022-10-18T04:12:49.392Z,10.30
2022-10-18T04:15:16.559Z,10.28
2022-10-18T04:17:43.394Z,10.43
2022-10-18T04:20:10.687Z,10.78
2022-10-18T04:22:37.562Z,10.58
2022-10-18T04:25:05.458Z,10.64
2022-10-18T04:27:32.539Z,10.65
2022-10-18T04:29:59.696Z,11.01
2022-10-18T04:32:28.831Z,11.37
2022-10-18T04:34:55.718Z,11.58
2022-10-18T04:37:22.777Z,11.93
2022-10-18T04:39:53.452Z,12.59
2022-10-18T04:42:21.853Z,13.30
2022-10-18T04:44:48.948Z,13.34
2022-10-18T04:47:16.766Z,13.07
2022-10-18T04:49:44.099Z,12.76
2022-10-18T04:52:12.074Z,12.84
2022-10-18T04:54:38.991Z,12.99
2022-10-18T04:57:05.950Z,13.62
2022-10-18T04:59:32.842Z,15.16
2022-10-18T05:01:59.873Z,16.43
2022-10-18T05:04:26.958Z,17.42
2022-10-18T05:06:53.822Z,18.57
2022-10-18T05:09:24.667Z,20.35
2022-10-18T05:11:51.749Z,20.68
2022-10-18T05:14:18.847Z,21.39
2022-10-18T05:16:45.765Z,22.00
2022-10-18T05:19:12.657Z,22.65
2022-10-18T05:21:39.689Z,23.51
2022-10-18T05:24:06.730Z,24.48
2022-10-18T05:26:33.671Z,24.32
2022-10-18T05:29:00.752Z,24.42
2022-10-18T05:31:27.802Z,23.87
2022-10-18T05:33:54.750Z,24.28
2022-10-18T05:36:21.690Z,24.51
2022-10-18T05:38:48.691Z,25.21
2022-10-18T05:41:15.565Z,25.99
2022-10-18T05:43:42.786Z,27.22
2022-10-18T05:46:14.779Z,28.32
2022-10-18T05:48:44.200Z,28.60
2022-10-18T05:51:11.807Z,28.73
2022-10-18T05:53:38.862Z,27.64
2022-10-18T05:56:07.237Z,27.08
2022-10-18T05:58:35.009Z,25.66
2022-10-18T06:01:02.873Z,25.04
2022-10-18T06:03:33.428Z,26.32
2022-10-18T06:06:06.318Z,27.78
2022-10-18T06:08:34.241Z,26.85
2022-10-18T06:11:16.040Z,28.30
2022-10-18T06:13:48.242Z,28.98
2022-10-18T06:16:17.403Z,28.00
2022-10-18T06:18:48.835Z,28.72
2022-10-18T06:21:16.621Z,29.65
2022-10-18T06:23:43.508Z,29.21
2022-10-18T06:26:11.809Z,29.98
2022-10-18T06:28:39.209Z,29.60
2022-10-18T06:31:06.678Z,29.56
2022-10-18T06:33:35.360Z,29.44
2022-10-18T06:36:05.650Z,29.63
2022-10-18T06:38:33.062Z,30.65
2022-10-18T06:41:00.550Z,32.33
2022-10-18T06:43:27.542Z,32.73
2022-10-18T06:45:54.824Z,30.79
2022-10-18T06:48:22.735Z,31.37
2022-10-18T06:50:53.835Z,30.27
2022-10-18T06:53:20.820Z,29.58
2022-10-18T06:55:47.782Z,28.20
2022-10-18T06:58:15.121Z,28.06
2022-10-18T07:00:42.054Z,29.13
2022-10-18T07:03:08.921Z,27.82
2022-10-18T07:05:36.063Z,27.54
2022-10-18T07:08:03.217Z,26.46
2022-10-18T07:10:30.190Z,23.25
2022-10-18T07:13:13.727Z,22.90
2022-10-18T07:15:43.945Z,22.64
2022-10-18T07:18:11.044Z,22.45
2022-10-18T07:20:38.139Z,21.76
2022-10-18T07:23:08.510Z,22.00
2022-10-18T07:25:36.185Z,22.89
2022-10-18T07:28:03.199Z,24.54
2022-10-18T07:30:30.130Z,26.22
2022-10-18T07:32:57.118Z,27.01
2022-10-18T07:35:24.028Z,25.39
2022-10-18T07:37:50.935Z,24.46
2022-10-18T07:40:17.941Z,25.12
2022-10-18T07:42:44.828Z,25.20
2022-10-18T07:45:12.801Z,26.18
2022-10-18T07:47:40.267Z,26.72
2022-10-18T07:50:07.939Z,25.36
2022-10-18T07:52:34.807Z,23.81
2022-10-18T07:55:01.672Z,24.93
2022-10-18T07:57:28.644Z,24.63
2022-10-18T07:59:57.183Z,21.62
2022-10-18T08:02:24.410Z,24.26
2022-10-18T08:04:51.551Z,24.48
2022-10-18T08:07:18.535Z,23.08
2022-10-18T08:09:45.421Z,21.80
2022-10-18T08:12:12.306Z,20.93
2022-10-18T08:14:39.333Z,19.38
2022-10-18T08:17:06.241Z,19.42
2022-10-18T08:19:33.141Z,19.48
2022-10-18T08:22:00.048Z,20.01
2022-10-18T08:24:26.949Z,20.04
2022-10-18T08:26:53.837Z,19.92
2022-10-18T08:29:24.095Z,20.13
2022-10-18T08:31:52.856Z,20.77
2022-10-18T08:34:20.144Z,20.82
2022-10-18T08:36:47.161Z,20.41
2022-10-18T08:39:14.029Z,20.74
2022-10-18T08:42:25.888Z,20.95
2022-10-18T08:44:53.974Z,21.05
2022-10-18T08:47:42.970Z,20.41
2022-10-18T08:50:19.780Z,21.11
2022-10-18T08:52:49.903Z,22.46
2022-10-18T08:55:38.827Z,22.35
2022-10-18T08:58:20.750Z,23.22
2022-10-18T09:01:05.616Z,23.35
2022-10-18T09:04:00.455Z,23.21
2022-10-18T09:06:50.121Z,24.77
2022-10-18T09:09:17.216Z,23.29
2022-10-18T09:12:01.908Z,22.07
2022-10-18T09:14:29.146Z,21.87
2022-10-18T09:17:23.521Z,20.66
2022-10-18T09:20:09.534Z,20.55
2022-10-18T09:23:03.330Z,20.24
2022-10-18T09:25:46.347Z,21.59
2022-10-18T09:28:40.647Z,22.06
2022-10-18T09:31:13.574Z,21.17
2022-10-18T09:34:02.138Z,21.16
2022-10-18T09:36:37.311Z,22.80
2022-10-18T09:39:22.660Z,24.74
2022-10-18T09:41:55.289Z,25.07
2022-10-18T09:44:33.756Z,25.68
2022-10-18T09:47:05.836Z,27.37
2022-10-18T09:49:46.834Z,28.06
2022-10-18T09:52:23.812Z,27.82
2022-10-18T09:54:56.169Z,26.07
2022-10-18T09:57:57.459Z,22.46
2022-10-18T10:00:35.181Z,21.13
2022-10-18T10:03:07.273Z,21.14
2022-10-18T10:05:34.190Z,22.18
2022-10-18T10:08:02.976Z,24.07
2022-10-18T10:10:31.437Z,25.57
2022-10-18T10:13:23.232Z,24.27
2022-10-18T10:16:00.342Z,23.34
2022-10-18T10:18:54.456Z,21.32
2022-10-18T10:21:22.430Z,22.81
2022-10-18T10:23:57.928Z,25.11
2022-10-18T10:26:29.014Z,25.68
2022-10-18T10:28:56.289Z,25.29
2022-10-18T10:31:34.177Z,22.62
2022-10-18T10:34:14.458Z,23.29
2022-10-18T10:36:51.218Z,24.88
2022-10-18T10:39:20.590Z,27.68
2022-10-18T10:41:51.865Z,28.83
2022-10-18T10:44:23.475Z,28.70
2022-10-18T10:46:54.943Z,26.55
2022-10-18T10:49:45.498Z,26.62
2022-10-18T10:52:26.990Z,27.69
2022-10-18T10:55:05.744Z,27.72
2022-10-18T10:57:38.840Z,27.29
2022-10-18T11:00:06.113Z,26.78
2022-10-18T11:02:35.522Z,26.85
2022-10-18T11:05:27.046Z,27.28
2022-10-18T11:07:58.779Z,29.28
2022-10-18T11:10:31.147Z,27.36
2022-10-18T11:13:18.572Z,26.45
2022-10-18T11:15:50.707Z,25.79
2022-10-18T11:18:24.062Z,26.16
2022-10-18T11:21:01.417Z,26.83
2022-10-18T11:23:32.638Z,25.91
2022-10-18T11:26:17.680Z,26.91
2022-10-18T11:29:17.937Z,27.37
2022-10-18T11:32:03.494Z,24.56
2022-10-18T11:34:53.482Z,24.16
2022-10-18T11:37:29.438Z,23.50
2022-10-18T11:40:22.765Z,24.63
2022-10-18T11:43:14.087Z,26.22
2022-10-18T11:46:18.110Z,25.19
2022-10-18T11:49:15.142Z,25.97
2022-10-18T11:52:08.747Z,26.89
2022-10-18T11:54:43.111Z,27.11
2022-10-18T11:57:48.689Z,24.66
2022-10-18T12:00:18.593Z,25.51
2022-10-18T12:03:00.655Z,24.24
2022-10-18T12:05:30.086Z,25.03
2022-10-18T12:07:59.295Z,24.79
2022-10-18T12:10:44.135Z,24.92
2022-10-18T12:13:35.818Z,24.51
2022-10-18T12:16:05.347Z,23.44
2022-10-18T12:18:33.661Z,22.62
2022-10-18T12:21:02.039Z,23.14
2022-10-18T12:23:35.074Z,22.75
2022-10-18T12:26:07.527Z,21.49
2022-10-18T12:28:59.794Z,19.95
2022-10-18T12:31:34.490Z,19.45
2022-10-18T12:34:13.491Z,21.16
2022-10-18T12:36:54.880Z,20.17
2022-10-18T12:39:43.326Z,19.11
2022-10-18T12:42:24.257Z,18.83
2022-10-18T12:45:06.361Z,20.75
2022-10-18T12:47:33.870Z,21.35
2022-10-18T12:50:04.862Z,21.74
2022-10-18T12:52:37.255Z,22.63
2022-10-18T12:55:19.511Z,21.80
2022-10-18T12:57:52.253Z,22.08
2022-10-18T13:00:31.466Z,22.37
2022-10-18T13:03:11.644Z,21.57
2022-10-18T13:05:55.886Z,21.76
2022-10-18T13:08:29.378Z,20.63
2022-10-18T13:11:02.052Z,20.52
2022-10-18T13:13:40.155Z,20.98
2022-10-18T13:16:28.988Z,20.87
2022-10-18T13:18:57.810Z,21.62
2022-10-18T13:21:35.377Z,21.96
2022-10-18T13:24:20.418Z,21.45
2022-10-18T13:27:04.058Z,20.85
2022-10-18T13:30:02.082Z,20.28
2022-10-18T13:32:48.377Z,19.49
2022-10-18T13:35:49.250Z,20.17
2022-10-18T13:38:42.375Z,19.89
2022-10-18T13:41:21.583Z,19.94
2022-10-18T13:44:10.448Z,19.87
2022-10-18T13:46:37.522Z,19.67
2022-10-18T13:49:35.069Z,19.43
2022-10-18T13:52:13.935Z,18.97
2022-10-18T13:55:02.203Z,18.86
2022-10-18T13:58:10.009Z,18.91
2022-10-18T14:00:37.014Z,18.75
2022-10-18T14:03:31.604Z,18.54
2022-10-18T14:06:25.484Z,18.30
2022-10-18T14:09:45.605Z,18.13
2022-10-18T14:12:46.086Z,18.25
2022-10-18T14:15:35.713Z,18.07
2022-10-18T14:18:12.732Z,18.41
2022-10-18T14:21:01.484Z,18.02
2022-10-18T14:23:38.011Z,18.03
2022-10-18T14:26:13.771Z,18.04
2022-10-18T14:28:59.109Z,17.86
2022-10-18T14:31:27.452Z,17.75
2022-10-18T14:33:57.945Z,17.76
2022-10-18T14:36:39.863Z,17.71
2022-10-18T14:39:16.977Z,17.56
2022-10-18T14:42:19.806Z,17.55
2022-10-18T14:44:54.201Z,17.32
2022-10-18T14:47:31.343Z,17.15
2022-10-18T14:50:00.205Z,17.01
2022-10-18T14:52:35.490Z,16.97
2022-10-18T14:55:03.706Z,16.70
2022-10-18T14:57:34.316Z,16.60
2022-10-18T15:00:08.111Z,16.65
2022-10-18T15:02:39.557Z,16.76
2022-10-18T15:05:23.859Z,16.65
2022-10-18T15:07:54.267Z,16.33
2022-10-18T15:10:29.471Z,16.30
2022-10-18T15:13:09.920Z,16.41
2022-10-18T15:15:39.767Z,16.44
2022-10-18T15:18:08.575Z,16.58
2022-10-18T15:20:42.864Z,16.37
2022-10-18T15:23:24.161Z,16.78
2022-10-18T15:26:00.011Z,16.70
2022-10-18T15:28:33.865Z,16.58
2022-10-18T15:31:02.400Z,16.41
2022-10-18T15:33:34.908Z,16.44
2022-10-18T15:36:18.873Z,16.29
2022-10-18T15:38:49.201Z,16.20
2022-10-18T15:41:36.584Z,16.30
2022-10-18T15:44:13.148Z,16.28
2022-10-18T15:49:24.848Z,16.48
2022-10-18T15:52:03.939Z,16.59
2022-10-18T15:54:31.353Z,16.69
2022-10-18T15:56:58.478Z,16.92
2022-10-18T15:59:30.902Z,17.01
2022-10-18T16:01:58.338Z,17.15
2022-10-18T16:04:28.361Z,17.07
2022-10-18T16:06:57.133Z,16.82
2022-10-18T16:09:26.779Z,16.96
2022-10-18T16:11:57.317Z,17.18
2022-10-18T16:14:26.379Z,16.65
2022-10-18T16:16:56.614Z,16.54
2022-10-18T16:19:26.570Z,16.69
2022-10-18T16:21:54.718Z,16.90
2022-10-18T16:24:23.060Z,17.06
2022-10-18T16:26:59.444Z,17.15
2022-10-18T16:29:28.796Z,16.49
2022-10-18T16:31:58.369Z,16.74
2022-10-18T16:34:29.343Z,16.81
2022-10-18T16:36:56.330Z,16.93
2022-10-18T16:39:24.505Z,16.37
2022-10-18T16:41:51.798Z,16.61
2022-10-18T16:44:19.388Z,16.63
2022-10-18T16:46:50.996Z,16.37
2022-10-18T16:49:26.314Z,16.38
2022-10-18T16:51:54.408Z,16.58
2022-10-18T16:54:22.404Z,16.40
2022-10-18T16:56:50.266Z,16.47
2022-10-18T16:59:35.172Z,16.52
2022-10-18T17:02:05.762Z,16.63
2022-10-18T17:04:32.786Z,16.55
2022-10-18T17:06:59.952Z,16.30
2022-10-18T17:09:26.903Z,16.44
2022-10-18T17:11:54.139Z,16.63
2022-10-18T17:14:21.079Z,16.18
2022-10-18T17:16:50.833Z,16.27
2022-10-18T17:19:21.882Z,16.02
2022-10-18T17:21:48.832Z,15.80
2022-10-18T17:24:15.771Z,15.68
2022-10-18T17:26:42.761Z,15.44
2022-10-18T17:29:10.070Z,15.09
2022-10-18T17:31:37.402Z,15.31
2022-10-18T17:34:04.689Z,15.36
2022-10-18T17:36:33.212Z,15.41
2022-10-18T17:39:00.420Z,15.16
2022-10-18T17:41:27.499Z,15.53
2022-10-18T17:43:54.499Z,15.57
2022-10-18T17:46:21.595Z,15.39
2022-10-18T17:48:48.633Z,15.64
2022-10-18T17:51:17.361Z,15.65
2022-10-18T17:53:44.784Z,15.59
2022-10-18T17:56:12.494Z,15.61
2022-10-18T17:58:39.731Z,15.56
2022-10-18T18:01:22.260Z,15.16
2022-10-18T18:03:49.624Z,15.31
2022-10-18T18:06:31.357Z,15.18
2022-10-18T18:08:59.698Z,15.26
2022-10-18T18:11:27.735Z,15.12
2022-10-18T18:13:56.224Z,15.16
2022-10-18T18:16:25.767Z,15.43
2022-10-18T18:18:54.722Z,15.66
2022-10-18T18:21:22.618Z,15.75
2022-10-18T18:23:50.363Z,15.73
2022-10-18T18:26:19.559Z,15.54
2022-10-18T18:28:46.752Z,15.35
2022-10-18T18:31:16.882Z,15.36
2022-10-18T18:33:44.615Z,15.61
2022-10-18T18:36:12.682Z,15.52
2022-10-18T18:38:42.844Z,15.53
2022-10-18T18:41:19.132Z,15.42
2022-10-18T18:43:51.357Z,15.65
2022-10-18T18:46:18.644Z,15.51
2022-10-18T18:48:45.848Z,15.37
2022-10-18T18:51:17.895Z,15.08
2022-10-18T18:53:46.994Z,14.72
2022-10-18T18:58:52.926Z,14.69
2022-10-18T19:01:22.699Z,14.30
2022-10-18T19:03:53.663Z,13.97
2022-10-18T19:06:32.639Z,14.32
2022-10-18T19:09:03.491Z,14.35
2022-10-18T19:11:33.689Z,14.45
2022-10-18T19:14:01.162Z,14.40
2022-10-18T19:16:29.635Z,14.27
2022-10-18T19:19:10.438Z,14.03
2022-10-18T19:21:40.929Z,13.52
2022-10-18T19:24:08.272Z,13.45
2022-10-18T19:26:44.833Z,13.61
2022-10-18T19:29:18.053Z,12.90
2022-10-18T19:31:45.677Z,12.89
2022-10-18T19:34:14.454Z,13.30
2022-10-18T19:36:43.655Z,13.13
2022-10-18T19:39:18.478Z,13.16
2022-10-18T19:41:50.737Z,13.33
2022-10-18T19:44:19.331Z,13.28
2022-10-18T19:46:46.907Z,13.59
2022-10-18T19:49:14.451Z,13.92
2022-10-18T19:51:42.093Z,14.07
2022-10-18T19:54:11.539Z,13.93
2022-10-18T19:56:38.692Z,14.19
2022-10-18T19:59:05.600Z,14.51
2022-10-18T20:01:32.627Z,14.53
2022-10-18T20:03:59.785Z,14.52
2022-10-18T20:06:26.844Z,14.62
2022-10-18T20:08:53.820Z,14.32
2022-10-18T20:11:23.110Z,13.64
2022-10-18T20:13:50.767Z,13.57
2022-10-18T20:16:20.658Z,13.40
2022-10-18T20:18:54.428Z,13.27
2022-10-18T20:21:21.426Z,13.30
2022-10-18T20:23:48.327Z,13.31
2022-10-18T20:26:20.432Z,13.18
2022-10-18T20:28:49.544Z,13.20
2022-10-18T20:31:19.021Z,12.53
2022-10-18T20:33:47.746Z,12.63
2022-10-18T20:36:17.950Z,12.77
2022-10-18T20:38:47.362Z,12.58
2022-10-18T20:41:14.300Z,12.45
2022-10-18T20:43:41.583Z,12.42
2022-10-18T20:46:09.077Z,12.24
2022-10-18T20:48:37.031Z,11.96
2022-10-18T20:51:09.925Z,12.21
2022-10-18T20:53:37.552Z,12.73
2022-10-18T20:56:07.659Z,12.39
2022-10-18T20:58:35.627Z,12.67
2022-10-18T21:01:29.327Z,12.61
2022-10-18T21:03:58.397Z,12.89
2022-10-18T21:06:26.429Z,12.78
2022-10-18T21:09:01.972Z,12.57
2022-10-18T21:11:31.237Z,12.20
2022-10-18T21:14:02.642Z,12.06
2022-10-18T21:16:31.266Z,11.82
2022-10-18T21:19:25.445Z,12.04
2022-10-18T21:21:56.100Z,12.34
2022-10-18T21:24:24.807Z,12.46
2022-10-18T21:26:52.010Z,12.40
2022-10-18T21:29:22.231Z,12.32
2022-10-18T21:31:49.642Z,12.59
2022-10-18T21:34:17.579Z,12.61
2022-10-18T21:36:46.635Z,12.57
2022-10-18T21:39:16.745Z,12.07
2022-10-18T21:41:44.131Z,12.19
2022-10-18T21:44:11.678Z,12.38
2022-10-18T21:46:39.589Z,12.55
2022-10-18T21:49:07.946Z,12.07
2022-10-18T21:51:35.379Z,12.09
2022-10-18T21:54:02.271Z,12.01
2022-10-18T21:56:32.987Z,11.54
2022-10-18T21:59:00.577Z,11.42
2022-10-18T22:01:35.576Z,11.34
2022-10-18T22:04:04.715Z,11.53
2022-10-18T22:09:08.553Z,11.56
2022-10-18T22:11:40.209Z,11.70
2022-10-18T22:14:07.322Z,11.92
2022-10-18T22:16:34.227Z,12.04
2022-10-18T22:19:03.419Z,12.10
2022-10-18T22:21:30.661Z,11.89
2022-10-18T22:23:58.434Z,11.73
2022-10-18T22:26:30.504Z,11.67
2022-10-18T22:29:03.063Z,11.74
2022-10-18T22:31:33.041Z,11.38
2022-10-18T22:34:03.322Z,11.40
2022-10-18T22:36:31.011Z,11.37
2022-10-18T22:38:58.119Z,11.62
2022-10-18T22:41:25.103Z,11.69
2022-10-18T22:43:52.391Z,11.65
2022-10-18T22:46:20.402Z,11.55
2022-10-18T22:48:47.518Z,11.57
2022-10-18T22:51:14.709Z,11.37
2022-10-18T22:53:42.017Z,10.99
2022-10-18T22:56:13.263Z,10.89
2022-10-18T22:58:40.276Z,10.58
2022-10-18T23:01:10.987Z,10.56
2022-10-18T23:03:38.638Z,10.88
2022-10-18T23:06:17.250Z,11.35
2022-10-18T23:08:44.221Z,11.38
2022-10-18T23:11:11.164Z,11.24
2022-10-18T23:13:39.630Z,11.19
2022-10-18T23:16:07.100Z,11.14
2022-10-18T23:18:34.139Z,10.68
2022-10-18T23:21:09.047Z,10.50
2022-10-18T23:23:37.936Z,10.68
2022-10-18T23:26:07.040Z,10.80
2022-10-18T23:28:36.141Z,10.54
2022-10-18T23:31:12.751Z,10.63
2022-10-18T23:33:41.214Z,10.65
2022-10-18T23:36:09.403Z,10.63
2022-10-18T23:38:37.642Z,10.65
2022-10-18T23:41:09.078Z,10.53
2022-10-18T23:43:36.437Z,10.54
2022-10-18T23:46:03.838Z,10.73
2022-10-18T23:48:31.212Z,10.87
2022-10-18T23:50:58.085Z,10.81
2022-10-18T23:53:24.992Z,11.19
2022-10-18T23:55:55.913Z,11.08
2022-10-18T23:58:23.898Z,11.05
